sensor_id;sensor_type;location;lat;lon;timestamp;P1;durP1;ratioP1;P2;durP2;ratioP2
72408;SDS011;60402;48.082;11.628;2023-04-03T00:02:08;14.35;;;6.00;;
72408;SDS011;60402;48.082;11.628;2023-04-03T00:04:54;11.55;;;4.90;;
72408;SDS011;60402;48.082;11.628;2023-04-03T00:07:40;10.98;;;4.53;;
72408;SDS011;60402;48.082;11.628;2023-04-03T00:10:26;10.85;;;4.85;;
72408;SDS011;60402;48.082;11.628;2023-04-03T00:13:11;11.55;;;4.80;;
72408;SDS011;60402;48.082;11.628;2023-04-03T00:15:57;12.05;;;5.30;;
72408;SDS011;60402;48.082;11.628;2023-04-03T00:18:43;11.75;;;5.40;;
72408;SDS011;60402;48.082;11.628;2023-04-03T00:21:29;12.18;;;5.32;;
72408;SDS011;60402;48.082;11.628;2023-04-03T00:24:14;11.73;;;5.40;;
72408;SDS011;60402;48.082;11.628;2023-04-03T00:27:00;11.73;;;5.10;;
72408;SDS011;60402;48.082;11.628;2023-04-03T00:29:46;11.98;;;4.97;;
72408;SDS011;60402;48.082;11.628;2023-04-03T00:32:32;13.45;;;5.50;;
72408;SDS011;60402;48.082;11.628;2023-04-03T00:35:18;14.10;;;5.25;;
72408;SDS011;60402;48.082;11.628;2023-04-03T00:38:05;10.70;;;5.50;;
72408;SDS011;60402;48.082;11.628;2023-04-03T00:40:51;9.82;;;4.68;;
72408;SDS011;60402;48.082;11.628;2023-04-03T00:43:36;11.45;;;4.43;;
72408;SDS011;60402;48.082;11.628;2023-04-03T00:46:22;13.15;;;4.95;;
72408;SDS011;60402;48.082;11.628;2023-04-03T00:49:08;13.07;;;5.07;;
72408;SDS011;60402;48.082;11.628;2023-04-03T00:51:53;12.68;;;4.75;;
72408;SDS011;60402;48.082;11.628;2023-04-03T00:54:41;12.85;;;5.20;;
72408;SDS011;60402;48.082;11.628;2023-04-03T00:57:29;11.43;;;5.32;;
72408;SDS011;60402;48.082;11.628;2023-04-03T01:00:17;11.48;;;4.97;;
72408;SDS011;60402;48.082;11.628;2023-04-03T01:05:51;10.00;;;4.95;;
72408;SDS011;60402;48.082;11.628;2023-04-03T01:08:36;11.90;;;4.78;;
72408;SDS011;60402;48.082;11.628;2023-04-03T01:11:22;11.23;;;5.25;;
72408;SDS011;60402;48.082;11.628;2023-04-03T01:14:08;11.98;;;5.50;;
72408;SDS011;60402;48.082;11.628;2023-04-03T01:16:53;11.43;;;5.10;;
72408;SDS011;60402;48.082;11.628;2023-04-03T01:19:40;13.07;;;5.43;;
72408;SDS011;60402;48.082;11.628;2023-04-03T01:22:34;11.57;;;5.40;;
72408;SDS011;60402;48.082;11.628;2023-04-03T01:25:43;11.80;;;5.15;;
72408;SDS011;60402;48.082;11.628;2023-04-03T01:28:32;10.15;;;5.00;;
72408;SDS011;60402;48.082;11.628;2023-04-03T01:31:21;10.65;;;4.95;;
72408;SDS011;60402;48.082;11.628;2023-04-03T01:34:10;10.30;;;4.95;;
72408;SDS011;60402;48.082;11.628;2023-04-03T01:36:56;10.73;;;5.80;;
72408;SDS011;60402;48.082;11.628;2023-04-03T01:39:42;10.50;;;4.97;;
72408;SDS011;60402;48.082;11.628;2023-04-03T01:42:27;12.48;;;5.00;;
72408;SDS011;60402;48.082;11.628;2023-04-03T01:45:13;11.27;;;4.63;;
72408;SDS011;60402;48.082;11.628;2023-04-03T01:47:59;10.40;;;4.90;;
72408;SDS011;60402;48.082;11.628;2023-04-03T01:50:44;10.90;;;5.10;;
72408;SDS011;60402;48.082;11.628;2023-04-03T01:53:31;12.32;;;5.13;;
72408;SDS011;60402;48.082;11.628;2023-04-03T01:56:16;10.50;;;5.38;;
72408;SDS011;60402;48.082;11.628;2023-04-03T01:59:02;11.93;;;5.32;;
72408;SDS011;60402;48.082;11.628;2023-04-03T02:01:48;10.30;;;4.70;;
72408;SDS011;60402;48.082;11.628;2023-04-03T02:04:33;12.93;;;5.18;;
72408;SDS011;60402;48.082;11.628;2023-04-03T02:07:19;10.30;;;4.57;;
72408;SDS011;60402;48.082;11.628;2023-04-03T02:10:05;10.10;;;4.50;;
72408;SDS011;60402;48.082;11.628;2023-04-03T02:12:51;10.95;;;5.18;;
72408;SDS011;60402;48.082;11.628;2023-04-03T02:15:37;10.50;;;4.82;;
72408;SDS011;60402;48.082;11.628;2023-04-03T02:18:24;10.68;;;4.82;;
72408;SDS011;60402;48.082;11.628;2023-04-03T02:21:10;11.60;;;4.78;;
72408;SDS011;60402;48.082;11.628;2023-04-03T02:23:55;12.00;;;5.43;;
72408;SDS011;60402;48.082;11.628;2023-04-03T02:26:41;9.80;;;4.68;;
72408;SDS011;60402;48.082;11.628;2023-04-03T02:29:27;10.95;;;4.78;;
72408;SDS011;60402;48.082;11.628;2023-04-03T02:32:12;10.45;;;5.07;;
72408;SDS011;60402;48.082;11.628;2023-04-03T02:34:58;10.15;;;4.47;;
72408;SDS011;60402;48.082;11.628;2023-04-03T02:37:44;10.27;;;5.05;;
72408;SDS011;60402;48.082;11.628;2023-04-03T02:40:29;8.50;;;4.40;;
72408;SDS011;60402;48.082;11.628;2023-04-03T02:43:15;11.35;;;4.85;;
72408;SDS011;60402;48.082;11.628;2023-04-03T02:46:01;11.82;;;4.68;;
72408;SDS011;60402;48.082;11.628;2023-04-03T02:48:46;13.85;;;5.07;;
72408;SDS011;60402;48.082;11.628;2023-04-03T02:51:32;9.68;;;4.50;;
72408;SDS011;60402;48.082;11.628;2023-04-03T02:54:17;10.90;;;4.63;;
72408;SDS011;60402;48.082;11.628;2023-04-03T02:57:03;11.63;;;4.82;;
72408;SDS011;60402;48.082;11.628;2023-04-03T02:59:49;10.75;;;5.13;;
72408;SDS011;60402;48.082;11.628;2023-04-03T03:02:35;10.43;;;4.30;;
72408;SDS011;60402;48.082;11.628;2023-04-03T03:05:20;8.80;;;3.97;;
72408;SDS011;60402;48.082;11.628;2023-04-03T03:08:07;9.38;;;4.50;;
72408;SDS011;60402;48.082;11.628;2023-04-03T03:10:52;9.50;;;4.40;;
72408;SDS011;60402;48.082;11.628;2023-04-03T03:13:38;8.65;;;4.40;;
72408;SDS011;60402;48.082;11.628;2023-04-03T03:16:24;12.45;;;4.80;;
72408;SDS011;60402;48.082;11.628;2023-04-03T03:19:09;8.98;;;3.80;;
72408;SDS011;60402;48.082;11.628;2023-04-03T03:21:55;8.82;;;4.32;;
72408;SDS011;60402;48.082;11.628;2023-04-03T03:24:42;9.52;;;3.92;;
72408;SDS011;60402;48.082;11.628;2023-04-03T03:27:28;8.45;;;3.83;;
72408;SDS011;60402;48.082;11.628;2023-04-03T03:30:13;8.38;;;3.92;;
72408;SDS011;60402;48.082;11.628;2023-04-03T03:32:59;8.30;;;3.42;;
72408;SDS011;60402;48.082;11.628;2023-04-03T03:35:45;10.25;;;3.97;;
72408;SDS011;60402;48.082;11.628;2023-04-03T03:38:31;8.05;;;3.30;;
72408;SDS011;60402;48.082;11.628;2023-04-03T03:41:16;8.38;;;3.85;;
72408;SDS011;60402;48.082;11.628;2023-04-03T03:44:02;8.43;;;3.72;;
72408;SDS011;60402;48.082;11.628;2023-04-03T03:46:48;8.38;;;3.55;;
72408;SDS011;60402;48.082;11.628;2023-04-03T03:49:33;7.65;;;3.28;;
72408;SDS011;60402;48.082;11.628;2023-04-03T03:52:19;7.00;;;3.20;;
72408;SDS011;60402;48.082;11.628;2023-04-03T03:55:05;5.85;;;2.92;;
72408;SDS011;60402;48.082;11.628;2023-04-03T03:57:51;7.20;;;3.35;;
72408;SDS011;60402;48.082;11.628;2023-04-03T04:00:37;7.07;;;3.15;;
72408;SDS011;60402;48.082;11.628;2023-04-03T04:03:22;7.85;;;2.90;;
72408;SDS011;60402;48.082;11.628;2023-04-03T04:06:08;8.98;;;3.85;;
72408;SDS011;60402;48.082;11.628;2023-04-03T04:08:53;7.65;;;3.55;;
72408;SDS011;60402;48.082;11.628;2023-04-03T04:11:39;7.38;;;3.45;;
72408;SDS011;60402;48.082;11.628;2023-04-03T04:14:25;7.30;;;2.90;;
72408;SDS011;60402;48.082;11.628;2023-04-03T04:17:12;5.82;;;2.72;;
72408;SDS011;60402;48.082;11.628;2023-04-03T04:22:47;6.10;;;2.92;;
72408;SDS011;60402;48.082;11.628;2023-04-03T04:25:33;5.32;;;2.63;;
72408;SDS011;60402;48.082;11.628;2023-04-03T04:28:19;7.65;;;2.90;;
72408;SDS011;60402;48.082;11.628;2023-04-03T04:31:05;7.68;;;2.90;;
72408;SDS011;60402;48.082;11.628;2023-04-03T04:33:50;7.43;;;3.33;;
72408;SDS011;60402;48.082;11.628;2023-04-03T04:36:36;8.00;;;3.10;;
72408;SDS011;60402;48.082;11.628;2023-04-03T04:39:22;7.18;;;3.13;;
72408;SDS011;60402;48.082;11.628;2023-04-03T04:42:07;7.53;;;3.28;;
72408;SDS011;60402;48.082;11.628;2023-04-03T04:44:57;6.47;;;2.92;;
72408;SDS011;60402;48.082;11.628;2023-04-03T04:47:43;8.48;;;3.67;;
72408;SDS011;60402;48.082;11.628;2023-04-03T04:50:29;7.65;;;3.13;;
72408;SDS011;60402;48.082;11.628;2023-04-03T04:53:15;9.18;;;3.60;;
72408;SDS011;60402;48.082;11.628;2023-04-03T04:56:01;7.38;;;2.78;;
72408;SDS011;60402;48.082;11.628;2023-04-03T04:58:46;6.60;;;2.83;;
72408;SDS011;60402;48.082;11.628;2023-04-03T05:01:32;6.65;;;2.63;;
72408;SDS011;60402;48.082;11.628;2023-04-03T05:04:27;7.15;;;3.50;;
72408;SDS011;60402;48.082;11.628;2023-04-03T05:07:13;6.47;;;2.85;;
72408;SDS011;60402;48.082;11.628;2023-04-03T05:09:58;7.53;;;3.33;;
72408;SDS011;60402;48.082;11.628;2023-04-03T05:12:44;5.60;;;2.38;;
72408;SDS011;60402;48.082;11.628;2023-04-03T05:15:29;6.32;;;3.08;;
72408;SDS011;60402;48.082;11.628;2023-04-03T05:18:15;6.72;;;2.92;;
72408;SDS011;60402;48.082;11.628;2023-04-03T05:21:01;7.10;;;2.92;;
72408;SDS011;60402;48.082;11.628;2023-04-03T05:23:46;7.32;;;2.72;;
72408;SDS011;60402;48.082;11.628;2023-04-03T05:26:32;6.50;;;2.80;;
72408;SDS011;60402;48.082;11.628;2023-04-03T05:29:18;6.43;;;2.83;;
72408;SDS011;60402;48.082;11.628;2023-04-03T05:32:03;6.05;;;2.78;;
72408;SDS011;60402;48.082;11.628;2023-04-03T05:34:49;5.75;;;2.50;;
72408;SDS011;60402;48.082;11.628;2023-04-03T05:37:35;6.55;;;2.88;;
72408;SDS011;60402;48.082;11.628;2023-04-03T05:40:22;6.63;;;3.35;;
72408;SDS011;60402;48.082;11.628;2023-04-03T05:43:07;7.47;;;3.17;;
72408;SDS011;60402;48.082;11.628;2023-04-03T05:45:53;5.43;;;2.63;;
72408;SDS011;60402;48.082;11.628;2023-04-03T05:48:39;7.93;;;2.70;;
72408;SDS011;60402;48.082;11.628;2023-04-03T05:51:25;7.55;;;3.30;;
72408;SDS011;60402;48.082;11.628;2023-04-03T05:54:17;6.85;;;3.30;;
72408;SDS011;60402;48.082;11.628;2023-04-03T05:57:03;6.28;;;3.00;;
72408;SDS011;60402;48.082;11.628;2023-04-03T05:59:48;5.68;;;2.75;;
72408;SDS011;60402;48.082;11.628;2023-04-03T06:02:35;6.10;;;2.75;;
72408;SDS011;60402;48.082;11.628;2023-04-03T06:05:21;4.85;;;2.40;;
72408;SDS011;60402;48.082;11.628;2023-04-03T06:08:07;6.20;;;2.97;;
72408;SDS011;60402;48.082;11.628;2023-04-03T06:10:54;5.85;;;2.70;;
72408;SDS011;60402;48.082;11.628;2023-04-03T06:13:40;5.55;;;2.75;;
72408;SDS011;60402;48.082;11.628;2023-04-03T06:16:25;6.13;;;3.10;;
72408;SDS011;60402;48.082;11.628;2023-04-03T06:19:11;5.63;;;2.72;;
72408;SDS011;60402;48.082;11.628;2023-04-03T06:21:57;8.00;;;3.13;;
72408;SDS011;60402;48.082;11.628;2023-04-03T06:24:43;7.88;;;2.83;;
72408;SDS011;60402;48.082;11.628;2023-04-03T06:27:29;6.00;;;2.53;;
72408;SDS011;60402;48.082;11.628;2023-04-03T06:30:14;5.95;;;2.53;;
72408;SDS011;60402;48.082;11.628;2023-04-03T06:33:00;6.25;;;2.90;;
72408;SDS011;60402;48.082;11.628;2023-04-03T06:35:46;7.35;;;2.75;;
72408;SDS011;60402;48.082;11.628;2023-04-03T06:38:32;9.00;;;3.40;;
72408;SDS011;60402;48.082;11.628;2023-04-03T06:41:19;6.32;;;2.88;;
72408;SDS011;60402;48.082;11.628;2023-04-03T06:44:05;5.30;;;2.90;;
72408;SDS011;60402;48.082;11.628;2023-04-03T06:46:50;7.85;;;3.03;;
72408;SDS011;60402;48.082;11.628;2023-04-03T06:49:37;7.05;;;3.22;;
72408;SDS011;60402;48.082;11.628;2023-04-03T06:52:22;7.25;;;2.95;;
72408;SDS011;60402;48.082;11.628;2023-04-03T06:55:08;8.82;;;3.22;;
72408;SDS011;60402;48.082;11.628;2023-04-03T06:57:55;6.65;;;2.80;;
72408;SDS011;60402;48.082;11.628;2023-04-03T07:00:40;7.72;;;2.58;;
72408;SDS011;60402;48.082;11.628;2023-04-03T07:03:26;7.70;;;3.08;;
72408;SDS011;60402;48.082;11.628;2023-04-03T07:06:13;7.30;;;3.22;;
72408;SDS011;60402;48.082;11.628;2023-04-03T07:09:00;7.72;;;3.03;;
72408;SDS011;60402;48.082;11.628;2023-04-03T07:11:48;6.82;;;2.63;;
72408;SDS011;60402;48.082;11.628;2023-04-03T07:14:33;6.40;;;3.38;;
72408;SDS011;60402;48.082;11.628;2023-04-03T07:17:19;8.98;;;3.60;;
72408;SDS011;60402;48.082;11.628;2023-04-03T07:20:05;6.60;;;2.50;;
72408;SDS011;60402;48.082;11.628;2023-04-03T07:22:52;5.78;;;2.50;;
72408;SDS011;60402;48.082;11.628;2023-04-03T07:25:48;7.22;;;3.10;;
72408;SDS011;60402;48.082;11.628;2023-04-03T07:28:34;7.60;;;2.95;;
72408;SDS011;60402;48.082;11.628;2023-04-03T07:31:21;6.53;;;2.80;;
72408;SDS011;60402;48.082;11.628;2023-04-03T07:34:08;6.88;;;2.85;;
72408;SDS011;60402;48.082;11.628;2023-04-03T07:36:53;6.60;;;3.08;;
72408;SDS011;60402;48.082;11.628;2023-04-03T07:39:42;9.20;;;3.13;;
72408;SDS011;60402;48.082;11.628;2023-04-03T07:42:29;8.30;;;3.60;;
72408;SDS011;60402;48.082;11.628;2023-04-03T07:45:15;8.10;;;3.05;;
72408;SDS011;60402;48.082;11.628;2023-04-03T07:48:02;8.38;;;3.20;;
72408;SDS011;60402;48.082;11.628;2023-04-03T07:50:48;8.75;;;3.58;;
72408;SDS011;60402;48.082;11.628;2023-04-03T07:53:34;5.35;;;2.63;;
72408;SDS011;60402;48.082;11.628;2023-04-03T07:56:20;7.30;;;3.05;;
72408;SDS011;60402;48.082;11.628;2023-04-03T07:59:06;8.32;;;3.63;;
72408;SDS011;60402;48.082;11.628;2023-04-03T08:01:52;6.28;;;3.20;;
72408;SDS011;60402;48.082;11.628;2023-04-03T08:04:38;8.90;;;3.17;;
72408;SDS011;60402;48.082;11.628;2023-04-03T08:07:24;6.90;;;2.88;;
72408;SDS011;60402;48.082;11.628;2023-04-03T08:10:10;9.55;;;3.70;;
72408;SDS011;60402;48.082;11.628;2023-04-03T08:12:56;7.85;;;3.67;;
72408;SDS011;60402;48.082;11.628;2023-04-03T08:15:41;8.95;;;3.40;;
72408;SDS011;60402;48.082;11.628;2023-04-03T08:18:27;5.63;;;3.03;;
72408;SDS011;60402;48.082;11.628;2023-04-03T08:21:13;7.47;;;3.03;;
72408;SDS011;60402;48.082;11.628;2023-04-03T08:23:59;7.25;;;3.10;;
72408;SDS011;60402;48.082;11.628;2023-04-03T08:26:45;6.78;;;3.25;;
72408;SDS011;60402;48.082;11.628;2023-04-03T08:29:30;9.13;;;3.75;;
72408;SDS011;60402;48.082;11.628;2023-04-03T08:32:16;7.63;;;3.30;;
72408;SDS011;60402;48.082;11.628;2023-04-03T08:35:05;8.90;;;3.85;;
72408;SDS011;60402;48.082;11.628;2023-04-03T08:37:51;7.20;;;3.20;;
72408;SDS011;60402;48.082;11.628;2023-04-03T08:40:37;6.75;;;3.33;;
72408;SDS011;60402;48.082;11.628;2023-04-03T08:46:24;6.93;;;3.17;;
72408;SDS011;60402;48.082;11.628;2023-04-03T08:49:22;6.05;;;3.33;;
72408;SDS011;60402;48.082;11.628;2023-04-03T08:52:11;6.70;;;3.35;;
72408;SDS011;60402;48.082;11.628;2023-04-03T08:55:01;5.93;;;3.05;;
72408;SDS011;60402;48.082;11.628;2023-04-03T08:57:51;6.93;;;3.70;;
72408;SDS011;60402;48.082;11.628;2023-04-03T09:00:46;9.05;;;3.78;;
72408;SDS011;60402;48.082;11.628;2023-04-03T09:03:36;10.40;;;4.80;;
72408;SDS011;60402;48.082;11.628;2023-04-03T09:06:31;7.53;;;3.58;;
72408;SDS011;60402;48.082;11.628;2023-04-03T09:09:31;6.82;;;3.50;;
72408;SDS011;60402;48.082;11.628;2023-04-03T09:12:27;6.55;;;3.47;;
72408;SDS011;60402;48.082;11.628;2023-04-03T09:15:18;8.02;;;3.65;;
72408;SDS011;60402;48.082;11.628;2023-04-03T09:23:59;7.90;;;3.80;;
72408;SDS011;60402;48.082;11.628;2023-04-03T09:26:57;7.90;;;3.50;;
72408;SDS011;60402;48.082;11.628;2023-04-03T09:29:47;7.40;;;3.22;;
72408;SDS011;60402;48.082;11.628;2023-04-03T09:32:37;5.88;;;3.60;;
72408;SDS011;60402;48.082;11.628;2023-04-03T09:35:24;6.85;;;3.33;;
72408;SDS011;60402;48.082;11.628;2023-04-03T09:41:14;7.70;;;3.92;;
72408;SDS011;60402;48.082;11.628;2023-04-03T09:44:02;7.30;;;3.58;;
72408;SDS011;60402;48.082;11.628;2023-04-03T09:46:48;8.18;;;3.42;;
72408;SDS011;60402;48.082;11.628;2023-04-03T09:49:33;8.32;;;3.50;;
72408;SDS011;60402;48.082;11.628;2023-04-03T09:52:23;6.75;;;3.58;;
72408;SDS011;60402;48.082;11.628;2023-04-03T09:55:15;6.22;;;3.05;;
72408;SDS011;60402;48.082;11.628;2023-04-03T09:58:04;5.07;;;2.58;;
72408;SDS011;60402;48.082;11.628;2023-04-03T10:01:20;9.65;;;3.55;;
72408;SDS011;60402;48.082;11.628;2023-04-03T10:04:20;6.55;;;2.80;;
72408;SDS011;60402;48.082;11.628;2023-04-03T10:10:18;6.30;;;3.10;;
72408;SDS011;60402;48.082;11.628;2023-04-03T10:13:16;6.32;;;3.17;;
72408;SDS011;60402;48.082;11.628;2023-04-03T10:16:09;5.07;;;2.78;;
72408;SDS011;60402;48.082;11.628;2023-04-03T10:19:06;6.28;;;3.13;;
72408;SDS011;60402;48.082;11.628;2023-04-03T10:25:32;5.32;;;2.35;;
72408;SDS011;60402;48.082;11.628;2023-04-03T10:31:51;4.95;;;2.22;;
72408;SDS011;60402;48.082;11.628;2023-04-03T10:34:45;6.50;;;2.60;;
72408;SDS011;60402;48.082;11.628;2023-04-03T10:37:47;5.97;;;3.08;;
72408;SDS011;60402;48.082;11.628;2023-04-03T10:40:47;7.32;;;3.70;;
72408;SDS011;60402;48.082;11.628;2023-04-03T10:43:59;5.82;;;3.03;;
72408;SDS011;60402;48.082;11.628;2023-04-03T10:46:49;12.00;;;3.67;;
72408;SDS011;60402;48.082;11.628;2023-04-03T10:49:45;7.15;;;3.88;;
72408;SDS011;60402;48.082;11.628;2023-04-03T10:52:48;7.97;;;3.78;;
72408;SDS011;60402;48.082;11.628;2023-04-03T10:58:50;7.07;;;2.97;;
72408;SDS011;60402;48.082;11.628;2023-04-03T11:01:40;6.55;;;3.08;;
72408;SDS011;60402;48.082;11.628;2023-04-03T11:04:29;5.95;;;3.20;;
72408;SDS011;60402;48.082;11.628;2023-04-03T11:07:30;7.10;;;3.65;;
72408;SDS011;60402;48.082;11.628;2023-04-03T11:10:23;7.15;;;2.97;;
72408;SDS011;60402;48.082;11.628;2023-04-03T11:13:17;6.07;;;3.30;;
72408;SDS011;60402;48.082;11.628;2023-04-03T11:16:08;8.98;;;3.28;;
72408;SDS011;60402;48.082;11.628;2023-04-03T11:19:02;6.55;;;2.85;;
72408;SDS011;60402;48.082;11.628;2023-04-03T11:25:04;4.93;;;2.70;;
72408;SDS011;60402;48.082;11.628;2023-04-03T11:28:12;6.38;;;2.75;;
72408;SDS011;60402;48.082;11.628;2023-04-03T11:37:51;7.45;;;2.85;;
72408;SDS011;60402;48.082;11.628;2023-04-03T11:43:25;7.47;;;2.42;;
72408;SDS011;60402;48.082;11.628;2023-04-03T11:46:14;3.92;;;1.65;;
72408;SDS011;60402;48.082;11.628;2023-04-03T11:49:01;5.63;;;2.35;;
72408;SDS011;60402;48.082;11.628;2023-04-03T11:51:47;4.15;;;1.95;;
72408;SDS011;60402;48.082;11.628;2023-04-03T11:57:45;6.25;;;2.05;;
72408;SDS011;60402;48.082;11.628;2023-04-03T12:12:28;4.20;;;1.90;;
72408;SDS011;60402;48.082;11.628;2023-04-03T12:30:26;9.77;;;2.80;;
72408;SDS011;60402;48.082;11.628;2023-04-03T12:33:20;3.80;;;1.50;;
72408;SDS011;60402;48.082;11.628;2023-04-03T12:36:21;6.68;;;2.40;;
72408;SDS011;60402;48.082;11.628;2023-04-03T12:39:17;5.63;;;2.15;;
72408;SDS011;60402;48.082;11.628;2023-04-03T12:45:15;5.32;;;1.70;;
72408;SDS011;60402;48.082;11.628;2023-04-03T12:48:06;6.68;;;2.10;;
72408;SDS011;60402;48.082;11.628;2023-04-03T12:51:01;3.63;;;1.65;;
72408;SDS011;60402;48.082;11.628;2023-04-03T12:53:48;4.30;;;1.73;;
72408;SDS011;60402;48.082;11.628;2023-04-03T12:56:37;3.88;;;1.65;;
72408;SDS011;60402;48.082;11.628;2023-04-03T12:59:23;1.73;;;1.25;;
72408;SDS011;60402;48.082;11.628;2023-04-03T13:02:30;5.35;;;1.75;;
72408;SDS011;60402;48.082;11.628;2023-04-03T13:05:19;4.15;;;1.80;;
72408;SDS011;60402;48.082;11.628;2023-04-03T13:08:09;3.10;;;1.45;;
72408;SDS011;60402;48.082;11.628;2023-04-03T13:10:59;3.90;;;1.60;;
72408;SDS011;60402;48.082;11.628;2023-04-03T13:13:59;2.47;;;1.27;;
72408;SDS011;60402;48.082;11.628;2023-04-03T13:16:55;2.65;;;1.40;;
72408;SDS011;60402;48.082;11.628;2023-04-03T13:19:45;3.65;;;1.75;;
72408;SDS011;60402;48.082;11.628;2023-04-03T13:22:33;7.57;;;2.67;;
72408;SDS011;60402;48.082;11.628;2023-04-03T13:25:24;7.88;;;3.75;;
72408;SDS011;60402;48.082;11.628;2023-04-03T13:28:18;5.35;;;2.38;;
72408;SDS011;60402;48.082;11.628;2023-04-03T13:34:06;4.22;;;1.63;;
72408;SDS011;60402;48.082;11.628;2023-04-03T13:36:58;4.70;;;1.58;;
72408;SDS011;60402;48.082;11.628;2023-04-03T13:39:45;4.50;;;1.88;;
72408;SDS011;60402;48.082;11.628;2023-04-03T13:42:41;4.60;;;1.63;;
72408;SDS011;60402;48.082;11.628;2023-04-03T13:45:28;4.47;;;1.50;;
72408;SDS011;60402;48.082;11.628;2023-04-03T13:48:16;3.38;;;1.50;;
72408;SDS011;60402;48.082;11.628;2023-04-03T13:51:05;5.35;;;1.60;;
72408;SDS011;60402;48.082;11.628;2023-04-03T13:54:12;1.70;;;1.08;;
72408;SDS011;60402;48.082;11.628;2023-04-03T13:57:10;3.63;;;1.05;;
72408;SDS011;60402;48.082;11.628;2023-04-03T13:59:59;3.40;;;1.13;;
72408;SDS011;60402;48.082;11.628;2023-04-03T14:02:46;5.72;;;1.80;;
72408;SDS011;60402;48.082;11.628;2023-04-03T14:05:33;3.05;;;1.25;;
72408;SDS011;60402;48.082;11.628;2023-04-03T14:08:18;5.20;;;1.38;;
72408;SDS011;60402;48.082;11.628;2023-04-03T14:11:04;6.72;;;1.75;;
72408;SDS011;60402;48.082;11.628;2023-04-03T14:13:50;2.92;;;1.38;;
72408;SDS011;60402;48.082;11.628;2023-04-03T14:16:38;3.42;;;1.35;;
72408;SDS011;60402;48.082;11.628;2023-04-03T14:19:27;5.45;;;1.35;;
72408;SDS011;60402;48.082;11.628;2023-04-03T14:22:20;1.52;;;1.02;;
72408;SDS011;60402;48.082;11.628;2023-04-03T14:25:07;2.30;;;1.00;;
72408;SDS011;60402;48.082;11.628;2023-04-03T14:27:53;4.18;;;1.30;;
72408;SDS011;60402;48.082;11.628;2023-04-03T14:30:39;3.42;;;1.23;;
72408;SDS011;60402;48.082;11.628;2023-04-03T14:33:24;4.30;;;1.35;;
72408;SDS011;60402;48.082;11.628;2023-04-03T14:36:14;2.78;;;1.40;;
72408;SDS011;60402;48.082;11.628;2023-04-03T14:39:05;4.05;;;1.25;;
72408;SDS011;60402;48.082;11.628;2023-04-03T14:41:52;3.55;;;1.30;;
72408;SDS011;60402;48.082;11.628;2023-04-03T14:44:38;2.75;;;1.20;;
72408;SDS011;60402;48.082;11.628;2023-04-03T14:47:24;3.35;;;1.10;;
72408;SDS011;60402;48.082;11.628;2023-04-03T14:50:16;2.67;;;1.45;;
72408;SDS011;60402;48.082;11.628;2023-04-03T14:53:06;3.42;;;1.20;;
72408;SDS011;60402;48.082;11.628;2023-04-03T14:55:52;2.65;;;1.23;;
72408;SDS011;60402;48.082;11.628;2023-04-03T14:58:38;2.47;;;1.33;;
72408;SDS011;60402;48.082;11.628;2023-04-03T15:01:24;3.47;;;1.30;;
72408;SDS011;60402;48.082;11.628;2023-04-03T15:04:14;3.20;;;1.10;;
72408;SDS011;60402;48.082;11.628;2023-04-03T15:07:01;2.70;;;1.30;;
72408;SDS011;60402;48.082;11.628;2023-04-03T15:09:47;3.08;;;1.00;;
72408;SDS011;60402;48.082;11.628;2023-04-03T15:12:32;3.78;;;1.23;;
72408;SDS011;60402;48.082;11.628;2023-04-03T15:15:19;3.15;;;1.15;;
72408;SDS011;60402;48.082;11.628;2023-04-03T15:18:05;4.65;;;1.17;;
72408;SDS011;60402;48.082;11.628;2023-04-03T15:20:52;2.33;;;0.90;;
72408;SDS011;60402;48.082;11.628;2023-04-03T15:23:39;2.42;;;0.95;;
72408;SDS011;60402;48.082;11.628;2023-04-03T15:26:25;2.20;;;1.10;;
72408;SDS011;60402;48.082;11.628;2023-04-03T15:29:10;2.30;;;1.23;;
72408;SDS011;60402;48.082;11.628;2023-04-03T15:31:56;2.95;;;1.13;;
72408;SDS011;60402;48.082;11.628;2023-04-03T15:34:42;3.92;;;1.20;;
72408;SDS011;60402;48.082;11.628;2023-04-03T15:37:27;2.70;;;1.00;;
72408;SDS011;60402;48.082;11.628;2023-04-03T15:40:13;3.38;;;1.08;;
72408;SDS011;60402;48.082;11.628;2023-04-03T15:42:59;6.30;;;1.40;;
72408;SDS011;60402;48.082;11.628;2023-04-03T15:45:45;3.20;;;1.20;;
72408;SDS011;60402;48.082;11.628;2023-04-03T15:48:30;2.72;;;1.00;;
72408;SDS011;60402;48.082;11.628;2023-04-03T15:51:16;2.45;;;1.00;;
72408;SDS011;60402;48.082;11.628;2023-04-03T15:54:02;2.88;;;1.10;;
72408;SDS011;60402;48.082;11.628;2023-04-03T15:56:48;1.77;;;0.90;;
72408;SDS011;60402;48.082;11.628;2023-04-03T15:59:34;4.20;;;1.30;;
72408;SDS011;60402;48.082;11.628;2023-04-03T16:02:20;3.17;;;0.90;;
72408;SDS011;60402;48.082;11.628;2023-04-03T16:05:06;3.33;;;1.20;;
72408;SDS011;60402;48.082;11.628;2023-04-03T16:07:52;3.17;;;1.33;;
72408;SDS011;60402;48.082;11.628;2023-04-03T16:10:40;3.50;;;1.00;;
72408;SDS011;60402;48.082;11.628;2023-04-03T16:13:26;6.03;;;1.20;;
72408;SDS011;60402;48.082;11.628;2023-04-03T16:16:11;4.75;;;1.50;;
72408;SDS011;60402;48.082;11.628;2023-04-03T16:18:57;6.22;;;1.45;;
72408;SDS011;60402;48.082;11.628;2023-04-03T16:21:43;3.67;;;1.23;;
72408;SDS011;60402;48.082;11.628;2023-04-03T16:24:29;4.38;;;1.55;;
72408;SDS011;60402;48.082;11.628;2023-04-03T16:27:14;2.13;;;0.98;;
72408;SDS011;60402;48.082;11.628;2023-04-03T16:30:01;4.38;;;1.20;;
72408;SDS011;60402;48.082;11.628;2023-04-03T16:32:46;3.13;;;1.15;;
72408;SDS011;60402;48.082;11.628;2023-04-03T16:35:32;3.20;;;1.27;;
72408;SDS011;60402;48.082;11.628;2023-04-03T16:38:18;3.65;;;1.23;;
72408;SDS011;60402;48.082;11.628;2023-04-03T16:41:04;3.55;;;1.30;;
72408;SDS011;60402;48.082;11.628;2023-04-03T16:43:50;3.60;;;1.30;;
72408;SDS011;60402;48.082;11.628;2023-04-03T16:46:36;2.63;;;1.23;;
72408;SDS011;60402;48.082;11.628;2023-04-03T16:49:21;2.63;;;1.23;;
72408;SDS011;60402;48.082;11.628;2023-04-03T16:52:07;4.45;;;1.27;;
72408;SDS011;60402;48.082;11.628;2023-04-03T16:54:53;2.40;;;1.10;;
72408;SDS011;60402;48.082;11.628;2023-04-03T16:57:40;1.88;;;0.93;;
72408;SDS011;60402;48.082;11.628;2023-04-03T17:00:27;3.45;;;1.20;;
72408;SDS011;60402;48.082;11.628;2023-04-03T17:03:15;6.32;;;1.10;;
72408;SDS011;60402;48.082;11.628;2023-04-03T17:06:01;3.00;;;1.30;;
72408;SDS011;60402;48.082;11.628;2023-04-03T17:08:47;3.50;;;1.40;;
72408;SDS011;60402;48.082;11.628;2023-04-03T17:11:34;5.70;;;1.30;;
72408;SDS011;60402;48.082;11.628;2023-04-03T17:14:20;3.17;;;1.15;;
72408;SDS011;60402;48.082;11.628;2023-04-03T17:17:06;3.42;;;1.00;;
72408;SDS011;60402;48.082;11.628;2023-04-03T17:19:53;2.78;;;1.35;;
72408;SDS011;60402;48.082;11.628;2023-04-03T17:22:40;3.10;;;1.15;;
72408;SDS011;60402;48.082;11.628;2023-04-03T17:25:26;4.78;;;1.30;;
72408;SDS011;60402;48.082;11.628;2023-04-03T17:28:11;3.22;;;1.15;;
72408;SDS011;60402;48.082;11.628;2023-04-03T17:30:58;3.58;;;1.42;;
72408;SDS011;60402;48.082;11.628;2023-04-03T17:33:44;2.88;;;1.35;;
72408;SDS011;60402;48.082;11.628;2023-04-03T17:36:31;8.13;;;1.40;;
72408;SDS011;60402;48.082;11.628;2023-04-03T17:39:17;4.65;;;1.63;;
72408;SDS011;60402;48.082;11.628;2023-04-03T17:42:03;4.20;;;1.30;;
72408;SDS011;60402;48.082;11.628;2023-04-03T17:44:49;4.25;;;1.30;;
72408;SDS011;60402;48.082;11.628;2023-04-03T17:47:35;1.73;;;0.90;;
72408;SDS011;60402;48.082;11.628;2023-04-03T17:50:20;4.68;;;1.20;;
72408;SDS011;60402;48.082;11.628;2023-04-03T17:53:06;2.60;;;1.30;;
72408;SDS011;60402;48.082;11.628;2023-04-03T17:55:52;3.42;;;1.20;;